createdAt,value
2022-11-08T00:04:34.902Z,11.70
2022-11-08T00:09:57.558Z,13.79
2022-11-08T00:15:01.799Z,15.28
2022-11-08T00:20:06.340Z,15.27
2022-11-08T00:25:11.325Z,13.09
2022-11-08T00:30:14.475Z,11.69
2022-11-08T00:35:17.526Z,11.93
2022-11-08T00:40:20.486Z,14.29
2022-11-08T00:45:23.590Z,15.17
2022-11-08T00:50:26.694Z,15.80
2022-11-08T00:55:29.706Z,15.24
2022-11-08T01:00:32.810Z,13.10
2022-11-08T01:05:38.475Z,11.74
2022-11-08T01:10:43.995Z,12.08
2022-11-08T01:15:47.726Z,14.33
2022-11-08T01:20:51.313Z,15.30
2022-11-08T01:25:54.383Z,15.74
2022-11-08T01:30:57.495Z,15.15
2022-11-08T01:36:00.799Z,13.00
2022-11-08T01:41:05.539Z,11.60
2022-11-08T01:46:33.854Z,11.93
2022-11-08T01:51:54.672Z,14.39
2022-11-08T01:57:01.693Z,15.36
2022-11-08T02:02:05.869Z,14.94
2022-11-08T02:07:12.294Z,12.86
2022-11-08T02:12:20.565Z,11.57
2022-11-08T02:17:23.601Z,11.94
2022-11-08T02:22:39.351Z,14.35
2022-11-08T02:27:42.615Z,15.39
2022-11-08T02:32:47.386Z,16.01
2022-11-08T02:37:51.182Z,15.36
2022-11-08T02:42:54.197Z,13.13
2022-11-08T02:47:57.397Z,11.69
2022-11-08T02:53:01.013Z,11.87
2022-11-08T02:58:04.907Z,14.22
2022-11-08T03:03:08.248Z,15.39
2022-11-08T03:08:11.360Z,15.90
2022-11-08T03:13:14.466Z,15.31
2022-11-08T03:18:17.928Z,13.10
2022-11-08T03:23:21.318Z,11.53
2022-11-08T03:28:24.729Z,11.66
2022-11-08T03:33:28.225Z,14.28
2022-11-08T03:38:31.330Z,15.59
2022-11-08T03:43:34.428Z,16.19
2022-11-08T03:48:37.458Z,15.37
2022-11-08T03:53:40.548Z,13.04
2022-11-08T03:58:43.549Z,11.53
2022-11-08T04:03:46.546Z,12.09
2022-11-08T04:08:49.653Z,15.38
2022-11-08T04:14:11.500Z,16.76
2022-11-08T04:19:36.006Z,16.12
2022-11-08T04:24:39.135Z,13.42
2022-11-08T04:29:42.232Z,11.85
2022-11-08T04:34:45.329Z,12.13
2022-11-08T04:39:50.317Z,14.72
2022-11-08T04:44:53.637Z,15.89
2022-11-08T04:49:56.687Z,15.65
2022-11-08T04:54:59.715Z,13.35
2022-11-08T05:00:02.904Z,11.82
2022-11-08T05:05:07.501Z,12.08
2022-11-08T05:10:10.684Z,14.68
2022-11-08T05:15:13.754Z,15.88
2022-11-08T05:20:35.805Z,15.60
2022-11-08T05:25:40.428Z,13.10
2022-11-08T05:30:43.863Z,11.62
2022-11-08T05:35:46.971Z,12.39
2022-11-08T05:40:49.974Z,14.85
2022-11-08T05:45:53.089Z,15.87
2022-11-08T05:50:57.108Z,15.45
2022-11-08T05:56:03.140Z,13.15
2022-11-08T06:01:13.865Z,11.66
2022-11-08T06:06:20.697Z,12.10
2022-11-08T06:11:27.410Z,14.58
2022-11-08T06:16:30.343Z,15.79
2022-11-08T06:21:33.662Z,15.57
2022-11-08T06:26:36.915Z,13.31
2022-11-08T06:31:43.037Z,11.86
2022-11-08T06:36:46.666Z,12.21
2022-11-08T06:41:49.875Z,14.75
2022-11-08T06:46:56.157Z,15.93
2022-11-08T06:51:59.677Z,15.63
2022-11-08T06:57:03.085Z,13.39
2022-11-08T07:02:07.088Z,11.98
2022-11-08T07:07:10.320Z,12.30
2022-11-08T07:12:13.548Z,14.94
2022-11-08T07:17:16.842Z,16.28
2022-11-08T07:22:19.944Z,15.99
2022-11-08T07:27:23.709Z,13.73
2022-11-08T07:32:26.885Z,13.85
2022-11-08T07:37:30.427Z,15.88
2022-11-08T07:43:05.144Z,16.62
2022-11-08T07:48:11.864Z,16.06
2022-11-08T07:53:16.145Z,13.92
2022-11-08T07:58:19.578Z,12.66
2022-11-08T08:03:23.489Z,13.16
2022-11-08T08:08:27.135Z,15.57
2022-11-08T08:13:30.334Z,17.01
2022-11-08T08:18:33.575Z,16.90
2022-11-08T08:23:36.750Z,14.52
2022-11-08T08:28:39.862Z,14.30
2022-11-08T08:33:43.688Z,16.71
2022-11-08T08:38:46.786Z,16.72
2022-11-08T08:43:50.123Z,14.64
2022-11-08T08:48:54.021Z,13.32
2022-11-08T08:53:58.668Z,13.88
2022-11-08T09:04:24.845Z,16.94
2022-11-08T09:09:28.255Z,14.79
2022-11-08T09:14:31.483Z,13.45
2022-11-08T09:19:34.680Z,13.96
2022-11-08T09:24:38.596Z,16.64
2022-11-08T09:29:41.735Z,17.94
2022-11-08T09:34:45.525Z,17.69
2022-11-08T09:39:48.840Z,15.43
2022-11-08T09:45:13.045Z,14.10
2022-11-08T09:50:39.189Z,14.82
2022-11-08T09:56:06.457Z,17.54
2022-11-08T10:01:14.551Z,17.44
2022-11-08T10:06:44.028Z,15.46
2022-11-08T10:12:37.088Z,15.54
2022-11-08T10:18:11.725Z,18.04
2022-11-08T10:23:57.538Z,17.78
2022-11-08T10:29:20.104Z,15.56
2022-11-08T10:34:29.325Z,14.79
2022-11-08T10:39:45.052Z,17.23
2022-11-08T10:44:48.261Z,17.90
2022-11-08T10:49:52.490Z,16.14
2022-11-08T10:54:59.180Z,15.18
2022-11-08T11:00:23.689Z,17.10
2022-11-08T11:05:31.854Z,19.02
2022-11-08T11:10:47.788Z,17.80
2022-11-08T11:16:00.473Z,16.06
2022-11-08T11:21:15.239Z,16.34
2022-11-08T11:26:18.438Z,17.73
2022-11-08T11:31:21.547Z,16.33
2022-11-08T11:36:30.527Z,16.91
2022-11-08T11:41:49.462Z,17.98
2022-11-08T11:47:02.813Z,16.46
2022-11-08T11:52:17.627Z,15.52
2022-11-08T11:57:41.516Z,16.84
2022-11-08T12:03:15.917Z,19.21
2022-11-08T12:08:36.030Z,19.09
2022-11-08T12:14:09.361Z,17.22
2022-11-08T12:19:24.739Z,16.10
2022-11-08T12:24:39.213Z,15.71
2022-11-08T12:29:51.559Z,18.11
2022-11-08T12:35:43.424Z,18.40
2022-11-08T12:41:11.917Z,16.75
2022-11-08T12:46:20.533Z,15.90
2022-11-08T12:51:57.542Z,16.63
2022-11-08T12:57:09.226Z,19.31
2022-11-08T13:02:24.979Z,19.41
2022-11-08T13:07:56.093Z,17.49
2022-11-08T13:13:36.203Z,16.33
2022-11-08T13:18:49.725Z,16.36
2022-11-08T13:24:38.428Z,18.78
2022-11-08T13:29:38.891Z,18.76
2022-11-08T13:34:49.517Z,17.13
2022-11-08T13:40:27.254Z,16.12
2022-11-08T13:45:34.828Z,15.42
2022-11-08T13:51:19.150Z,17.11
2022-11-08T13:56:56.325Z,19.32
2022-11-08T14:01:59.772Z,18.83
2022-11-08T14:07:06.233Z,16.89
2022-11-08T14:12:20.903Z,15.65
2022-11-08T14:17:52.986Z,14.85
2022-11-08T14:23:00.554Z,16.39
2022-11-08T14:28:05.033Z,18.36
2022-11-08T14:33:21.741Z,18.23
2022-11-08T14:38:28.240Z,16.27
2022-11-08T14:43:42.870Z,15.08
2022-11-08T14:48:54.383Z,14.29
2022-11-08T14:53:57.794Z,15.08
2022-11-08T14:59:07.001Z,17.54
2022-11-08T15:04:21.188Z,18.38
2022-11-08T15:09:33.470Z,17.89
2022-11-08T15:14:55.731Z,15.89
2022-11-08T15:20:21.768Z,14.57
2022-11-08T15:25:36.023Z,15.03
2022-11-08T15:30:43.335Z,17.44
2022-11-08T15:35:47.783Z,18.76
2022-11-08T15:40:54.783Z,18.19
2022-11-08T15:46:03.075Z,16.07
2022-11-08T15:51:06.421Z,14.76
2022-11-08T15:56:12.593Z,13.88
2022-11-08T16:01:23.289Z,13.20
2022-11-08T16:06:26.618Z,14.04
2022-11-08T16:11:32.971Z,16.79
2022-11-08T16:16:37.019Z,18.05
2022-11-08T16:21:40.230Z,17.80
2022-11-08T16:26:45.811Z,15.75
2022-11-08T16:31:51.152Z,14.40
2022-11-08T16:36:54.962Z,13.45
2022-11-08T16:41:58.526Z,12.70
2022-11-08T16:47:01.798Z,13.40
2022-11-08T16:52:05.118Z,16.14
2022-11-08T16:57:28.949Z,17.42
2022-11-08T17:02:35.743Z,17.04
2022-11-08T17:07:39.138Z,15.04
2022-11-08T17:12:42.203Z,13.74
2022-11-08T17:17:46.408Z,12.82
2022-11-08T17:22:49.860Z,13.20
2022-11-08T17:27:53.266Z,15.73
2022-11-08T17:32:56.571Z,17.04
2022-11-08T17:38:00.030Z,16.75
2022-11-08T17:43:03.342Z,14.62
2022-11-08T17:48:07.022Z,13.18
2022-11-08T17:53:10.329Z,12.24
2022-11-08T17:58:13.536Z,12.77
2022-11-08T18:03:17.136Z,15.43
2022-11-08T18:08:26.514Z,16.64
2022-11-08T18:13:31.453Z,16.17
2022-11-08T18:18:34.868Z,14.02
2022-11-08T18:23:41.969Z,12.65
2022-11-08T18:28:45.487Z,11.71
2022-11-08T18:33:49.841Z,12.20
2022-11-08T18:38:53.749Z,14.73
2022-11-08T18:44:00.027Z,16.07
2022-11-08T18:49:05.387Z,15.98
2022-11-08T18:54:08.597Z,13.78
2022-11-08T18:59:11.742Z,12.33
2022-11-08T19:04:15.023Z,11.37
2022-11-08T19:09:19.460Z,11.96
2022-11-08T19:14:23.072Z,14.52
2022-11-08T19:19:26.277Z,15.81
2022-11-08T19:24:29.385Z,16.48
2022-11-08T19:29:32.596Z,16.44
2022-11-08T19:34:37.034Z,14.34
2022-11-08T19:39:40.236Z,12.87
2022-11-08T19:44:43.340Z,13.19
2022-11-08T19:49:46.449Z,15.59
2022-11-08T19:54:50.482Z,16.73
2022-11-08T19:59:53.582Z,16.32
2022-11-08T20:04:56.791Z,14.15
2022-11-08T20:10:00.334Z,12.75
2022-11-08T20:15:04.342Z,13.11
2022-11-08T20:20:08.887Z,15.59
2022-11-08T20:25:12.091Z,16.57
2022-11-08T20:30:15.503Z,15.79
2022-11-08T20:35:22.967Z,13.79
2022-11-08T20:40:26.824Z,13.06
2022-11-08T20:45:30.443Z,15.07
2022-11-08T20:50:36.527Z,16.47
2022-11-08T20:55:39.744Z,16.22
2022-11-08T21:01:02.601Z,14.20
2022-11-08T21:06:09.242Z,13.31
2022-11-08T21:11:15.807Z,15.48
2022-11-08T21:16:29.978Z,16.62
2022-11-08T21:21:34.689Z,16.37
2022-11-08T21:26:37.790Z,14.28
2022-11-08T21:31:40.999Z,12.95
2022-11-08T21:36:44.002Z,12.25
2022-11-08T21:41:47.107Z,14.53
2022-11-08T21:46:50.520Z,16.45
2022-11-08T21:51:53.727Z,17.28
2022-11-08T21:56:56.851Z,16.41
2022-11-08T22:02:00.454Z,14.39
2022-11-08T22:07:03.781Z,13.08
2022-11-08T22:12:07.287Z,13.37
2022-11-08T22:17:10.498Z,15.65
2022-11-08T22:22:14.121Z,16.59
2022-11-08T22:27:17.622Z,16.33
2022-11-08T22:32:20.631Z,14.27
2022-11-08T22:37:23.658Z,12.90
2022-11-08T22:42:26.745Z,12.02
2022-11-08T22:47:29.757Z,12.55
2022-11-08T22:52:32.751Z,14.98
2022-11-08T22:57:35.852Z,16.11
2022-11-08T23:02:38.956Z,15.75
2022-11-08T23:07:42.063Z,13.83
2022-11-08T23:13:03.707Z,12.61
2022-11-08T23:18:06.817Z,13.11
2022-11-08T23:23:29.380Z,15.20
2022-11-08T23:28:51.215Z,16.30
2022-11-08T23:33:54.324Z,16.04
2022-11-08T23:38:58.967Z,13.99
2022-11-08T23:44:20.811Z,12.70
2022-11-08T23:49:24.122Z,12.94
2022-11-08T23:54:27.227Z,15.22
2022-11-08T23:59:30.332Z,16.34
